Česky Dansk Deutsch English Español Suomi Français Magyar Italiano Nederlands norsk Polski Português svenska Türkçe

 

Het Weer

Ramsar (Iran)

09:00, 21 augustus 2016 (GMT)

NWNNE
WE
SWSSE
Home            
Ramsar Noshahr Ghazvin Rasht Karaj / Payam Tehran-Mehrabad Zanjan Ardabil Semnan Hamadan Arak Kashan Gorgan Sanandaj Baku / Bine Airport Saghez Maragheh / Sahand Tabriz Kermanshah Khorram Abad Orumieh Esfahan Shahre-Kord

Om een weerknop op uw website of weblog te plaatsen, copieer onderstaande code en plak die in uw pagina. In het eerste vakje staat HTML-code, in het tweede vakje UBB-code.


Add to Google

Details

Wind speed:2 bf, 6 kn, 3.1 m/s, 6.9 miles/h, 11.1 km/h
Wind direction:NNE, 030°
Visibility:Greater than 10000 m, 10 km, 32800 ft, 6.2 miles
Clouds:CAVOC
Temperature:31°C, 88°F
Gefühlte Temperatur:34°C, 93°F
Dew-point:21°C, 70°F
Atmospheric pressure:1014 hPa, 760.6 mmHg, 29.94 inHg, 1.001 atm
Relative humidity:55.4 %
METAR:OINR 210900Z 03006KT CAVOK 31/21 Q1014

Snelkoppelingen

Actuele weersinformatie van de hele wereld. Voeg locaties toe met het plus (+) symbool. Deze snelkoppelingen kunnen worden toegevoegd aan Google.

Lid van de Technetium groep

website free tracking
StatCounter NetStat W3C Validator

26-05-2024 01:27:49
astro.technetium.be money.technetium.be phote.technetium.be tafeltennistafel.technetium.be www.ligfiets.net